Terminal Aerodrome Forecast
Issued by NWS

Home | Current Version | Previous Version | Graphics & Text | Print | Product List | Glossary On
Versions: 1 2 3 4 5 6 7 8 9 10 11 12 13 14 15
000
FTUS43 KFGF 031400 AAA
TAFBJI
TAF AMD
KBJI 031438Z 0315/0412 31015G22KT 2SM -SN OVC015
     FM031600 30015G25KT P6SM BKN040
      TEMPO 0316/0318 3SM -SN BKN025
     FM040000 29015KT P6SM SCT040=

USA.gov is the U.S. government's official web portal to all federal, state and local government web resources and services.